Flight Track Log - Related Links

Times and Time Zones

All times are in EDT time to prevent confusion due to time zone crossing. See the SWA1017 flight status page for this flight to view local times or setup timezone preferences in your user account.

Time Position Orientation Groundspeed Altitude Reporting Facility
EDT Latitude Longitude Course Direction KTS km/h feet Rate Location/Type
Fri 16:54:11 30.1378 -97.5497 41° Northeast 246 455 6.000  Level Houston Center
Fri 16:55:13 30.1911 -97.4806 48° Northeast 305 565 7.000 823 Climbing Houston Center
Fri 16:56:15 30.2728 -97.4478 19° North 307 568 7.700 2.323 Climbing Houston Center
Fri 16:57:17 30.3475 -97.4092 24° Northeast 294 544 11.800 2.952 Climbing Houston Center
Fri 16:58:00 30.5752 -97.2748 41° Northeast  Level FlightAware Approximate
Fri 16:58:19 30.4353 -97.3650 23° Northeast 339 628 13.800  Level Houston Center
Fri 16:59:00 30.6339 -97.1994 41° Northeast  Level FlightAware Approximate
Fri 16:59:21 30.5333 -97.3156 23° Northeast 377 698 16.800  Level Houston Center
Fri 17:00:23 30.6336 -97.2244 38° Northeast 391 724 21.100 2.496 Climbing Houston Center
Fri 17:01:26 30.7106 -97.1333 46° Northeast 393 727 22.000 432 Climbing Houston Center
Fri 17:02:28 30.7894 -97.0378 46° Northeast 407 753 22.000  Level Houston Center
Fri 17:03:30 30.8675 -96.9428 46° Northeast 408 756 22.000  Level Houston Center
Fri 17:04:32 30.9503 -96.8450 45° Northeast 421 779 22.000  Level Houston Center
Fri 17:05:34 31.0442 -96.7317 46° Northeast 416 771 22.000  Level Houston Center
Fri 17:06:36 31.1267 -96.6361 45° Northeast 417 772 22.000  Level Houston Center
Fri 17:07:38 31.2072 -96.5364 47° Northeast 417 772 22.000  Level Houston Center
Fri 17:08:40 31.2886 -96.4372 46° Northeast 419 776 22.000  Level Houston Center
Fri 17:09:42 31.3697 -96.3392 46° Northeast 417 772 22.000  Level Houston Center
Fri 17:10:44 31.4764 -96.3033 16° North 404 748 22.000  Level Houston Center
Fri 17:11:47 31.5878 -96.3125 356° North 397 735 22.000  Level Houston Center
Fri 17:12:54 31.7264 -96.3242 356° North 389 721 22.000 -756 Level Fort Worth Center
Fri 17:13:54 31.8411 -96.3275 359° North 396 734 20.400 -1.750 Descending Fort Worth Center
Fri 17:14:54 31.9500 -96.3361 356° North 401 742 18.500 -2.000 Descending Fort Worth Center
Fri 17:15:54 32.0564 -96.3447 356° North 391 724 16.400 -2.400 Descending Fort Worth Center
Fri 17:16:54 32.1631 -96.3533 356° North 384 711 13.700 -2.250 Descending Fort Worth Center
Fri 17:17:54 32.2592 -96.3594 357° North 384 711 11.900 -1.900 Descending Fort Worth Center
Fri 17:18:54 32.3697 -96.3681 356° North 374 692 9.900 -1.500 Descending Fort Worth Center
Fri 17:19:54 32.4492 -96.3769 355° North 334 618 8.900 -1.400 Descending Fort Worth Center
Fri 17:20:54 32.5269 -96.4253 332° Northwest 289 536 7.100 -1.700 Descending Fort Worth Center
Fri 17:21:54 32.5919 -96.4667 332° Northwest 289 536 5.500 -1.050 Descending Fort Worth Center
Fri 17:22:54 32.6714 -96.5125 334° Northwest 289 536 5.000 -250 Descending Fort Worth Center
Fri 17:23:54 32.7261 -96.5542 327° Northwest 271 502 5.000  Level Fort Worth Center
Fri 17:24:54 32.7850 -96.6053 324° Northwest 247 457 5.000  Level Fort Worth Center
Fri 17:25:54 32.8353 -96.6494 324° Northwest 242 447 5.000 -389 Level Fort Worth Center
Fri 17:26:42 32.8833 -96.7000 319° Northwest 240 444 4.300 -556 Descending Dallas / Fort Worth TRACON
Fri 17:27:42 32.9167 -96.7500 308° West 235 435 4.000 -470 Descending Dallas / Fort Worth TRACON
Fri 17:28:37 32.9667 -96.8000 320° Northwest 206 381 3.400 -496 Descending Dallas / Fort Worth TRACON
Fri 17:29:43 32.9833 -96.8667 287° West 181 335 3.000 -600 Descending Dallas / Fort Worth TRACON
Fri 17:30:37 32.9667 -96.9000 239° Southwest 164 304 2.200 -522 Descending Dallas / Fort Worth TRACON
Fri 17:31:38 32.9333 -96.9333 220° Southwest 155 286 2.000 -298 Descending Dallas / Fort Worth TRACON
Fri 17:32:38 32.9000 -96.9000 140° Southeast 142 262 1.600 -500 Descending Dallas / Fort Worth TRACON
Fri 17:33:38 32.8667 -96.8833 157° South 126 233 1.000 -600 Descending Dallas / Fort Worth TRACON
Fri 17:35:00 32.8471 -96.8518 154° Southeast  Level Estimated
Fri 17:42:00 32.8471 -96.8518 154° Southeast  Level Estimated

Login

Don't have an account? Register now (free) for customized features, flight alerts, and more!